Time;durP1;ratioP1;P1;durP2;ratioP2;P2;SDS_P1;SDS_P2;PMS_P1;PMS_P2;Temp;Humidity;BMP_temperature;BMP_pressure;BME280_temperature;BME280_humidity;BME280_pressure;Samples;Min_cycle;Max_cycle;Signal;HPM_P1;HPM_P2
2022/06/24 00:01:40;;;;;;;4.78;2.63;;;14.30;99.90;;;;;;5083358;28;20057;-89
2022/06/24 00:04:06;;;;;;;4.00;2.08;;;14.20;99.90;;;;;;5086359;28;20104;-89
2022/06/24 00:06:46;;;;;;;4.75;2.55;;;14.20;99.90;;;;;;5093186;28;20012;-87
2022/06/24 00:09:13;;;;;;;3.22;2.53;;;14.20;99.90;;;;;;5096578;28;20070;-87
2022/06/24 00:11:39;;;;;;;3.75;2.30;;;14.20;99.90;;;;;;5085764;28;20070;-87
2022/06/24 00:14:05;;;;;;;3.42;2.22;;;14.20;99.90;;;;;;5076629;28;20035;-88
2022/06/24 00:16:31;;;;;;;3.92;2.03;;;14.20;99.90;;;;;;5076452;28;20028;-87
2022/06/24 00:19:13;;;;;;;3.08;2.38;;;14.20;99.90;;;;;;5073999;28;20132;-88
2022/06/24 00:21:38;;;;;;;4.05;2.60;;;14.20;99.90;;;;;;5073878;28;20505;-88
2022/06/24 00:24:04;;;;;;;3.35;2.58;;;14.20;99.90;;;;;;5073935;28;20033;-87
2022/06/24 00:26:38;;;;;;;8.68;3.00;;;14.10;99.90;;;;;;5090705;28;20024;-87
2022/06/24 00:29:04;;;;;;;5.43;2.28;;;14.10;99.90;;;;;;5073772;28;20024;-88
2022/06/24 00:31:30;;;;;;;4.72;2.53;;;14.10;99.90;;;;;;5073419;28;20032;-86
2022/06/24 00:33:55;;;;;;;3.42;2.78;;;14.00;99.90;;;;;;5072875;28;20017;-89
2022/06/24 00:36:21;;;;;;;3.92;2.20;;;14.00;99.90;;;;;;5089600;28;20024;-87
2022/06/24 00:38:51;;;;;;;2.92;2.13;;;14.00;99.90;;;;;;5073540;28;20059;-87
2022/06/24 00:41:24;;;;;;;6.00;2.28;;;14.00;99.90;;;;;;5072784;28;20086;-90
2022/06/24 00:43:55;;;;;;;5.07;2.33;;;13.90;99.90;;;;;;5073379;28;20036;-89
2022/06/24 00:46:23;;;;;;;;;;;13.90;99.90;;;;;;5074045;28;20077;-89
2022/06/24 00:48:54;;;;;;;4.47;2.35;;;13.80;99.90;;;;;;5073722;28;19908;-89
2022/06/24 00:51:22;;;;;;;4.97;2.38;;;13.80;99.90;;;;;;5073712;28;20017;-88
2022/06/24 00:53:55;;;;;;;2.47;2.10;;;13.70;99.90;;;;;;5073130;28;20028;-88
2022/06/24 00:56:25;;;;;;;2.65;2.20;;;13.60;99.90;;;;;;5072249;28;20084;-89
2022/06/24 00:58:56;;;;;;;3.55;2.35;;;13.60;99.90;;;;;;5073118;28;20025;-88
2022/06/24 01:01:35;;;;;;;5.22;2.78;;;13.60;99.90;;;;;;5073485;28;20058;-87
2022/06/24 01:04:04;;;;;;;2.83;2.47;;;13.50;99.90;;;;;;5073525;28;20116;-88
2022/06/24 01:06:30;;;;;;;2.50;2.30;;;13.40;99.90;;;;;;5073658;28;20594;-88
2022/06/24 01:08:56;;;;;;;3.58;2.38;;;13.40;99.90;;;;;;5073251;28;20024;-88
2022/06/24 01:11:40;;;;;;;7.88;2.40;;;13.40;99.90;;;;;;5073676;28;20052;-88
2022/06/24 01:14:06;;;;;;;4.20;2.40;;;13.40;99.90;;;;;;5074642;28;20025;-87
2022/06/24 01:16:32;;;;;;;4.45;2.53;;;13.30;99.90;;;;;;5077589;28;20040;-88
2022/06/24 01:19:01;;;;;;;5.63;2.53;;;13.30;99.90;;;;;;5076326;28;20028;-87
2022/06/24 01:21:50;;;;;;;4.45;2.42;;;13.30;99.90;;;;;;5075005;28;20070;-88
2022/06/24 01:24:21;;;;;;;4.22;2.00;;;13.20;99.90;;;;;;5073663;28;20405;-87
2022/06/24 01:26:54;;;;;;;6.55;2.47;;;13.20;99.90;;;;;;5071753;28;20031;-88
2022/06/24 01:29:21;;;;;;;3.83;2.15;;;13.20;99.90;;;;;;5073601;28;20028;-87
2022/06/24 01:31:50;;;;;;;4.07;2.40;;;13.20;99.90;;;;;;5073153;28;20031;-89
2022/06/24 01:34:18;;;;;;;3.70;2.28;;;13.20;99.90;;;;;;5073486;28;20037;-89
2022/06/24 01:36:44;;;;;;;4.45;2.10;;;13.10;99.90;;;;;;5072035;28;20496;-89
2022/06/24 01:39:09;;;;;;;3.20;2.15;;;13.10;99.90;;;;;;5071652;28;20050;-88
2022/06/24 01:41:36;;;;;;;5.13;2.13;;;13.10;99.90;;;;;;5071415;28;20027;-89
2022/06/24 01:44:02;;;;;;;3.13;2.20;;;13.00;99.90;;;;;;5071440;28;20486;-88
2022/06/24 01:46:28;;;;;;;6.35;2.80;;;13.00;99.90;;;;;;5073332;28;20034;-89
2022/06/24 01:48:54;;;;;;;4.43;2.55;;;13.00;99.90;;;;;;5073239;28;20064;-88
2022/06/24 01:51:22;;;;;;;5.10;2.50;;;13.00;99.90;;;;;;5072315;28;20048;-88
2022/06/24 01:53:47;;;;;;;4.05;2.30;;;12.90;99.90;;;;;;5072995;28;20021;-88
2022/06/24 01:56:13;;;;;;;6.25;2.63;;;12.90;99.90;;;;;;5088741;28;20036;-88
2022/06/24 01:58:39;;;;;;;5.45;2.80;;;12.90;99.90;;;;;;5071724;28;20082;-88
2022/06/24 02:01:04;;;;;;;3.42;2.28;;;12.90;99.90;;;;;;5071538;28;20655;-89
2022/06/24 02:03:32;;;;;;;3.50;2.50;;;12.80;99.90;;;;;;5071878;28;20401;-88
2022/06/24 02:06:03;;;;;;;3.58;2.63;;;12.70;99.90;;;;;;5072525;28;20036;-87
2022/06/24 02:08:29;;;;;;;4.10;2.53;;;12.60;99.90;;;;;;5071506;28;20028;-88
2022/06/24 02:13:39;;;;;;;2.85;2.50;;;12.40;99.90;;;;;;5073575;28;20062;-88
2022/06/24 02:16:05;;;;;;;4.43;2.50;;;12.40;99.90;;;;;;5088366;28;20032;-88
2022/06/24 02:18:32;;;;;;;5.78;2.95;;;12.40;99.90;;;;;;5071549;28;20032;-89
2022/06/24 02:20:59;;;;;;;4.57;2.58;;;12.30;99.90;;;;;;5071700;28;20033;-88
2022/06/24 02:23:26;;;;;;;6.22;2.50;;;12.30;99.90;;;;;;5072351;28;20101;-88
2022/06/24 02:25:52;;;;;;;3.97;2.70;;;12.30;99.90;;;;;;5074950;28;20024;-90
2022/06/24 02:28:18;;;;;;;3.63;2.63;;;12.30;99.90;;;;;;5074681;28;20123;-88
2022/06/24 02:30:45;;;;;;;5.07;2.75;;;12.30;99.90;;;;;;5076243;28;20500;-88
2022/06/24 02:33:11;;;;;;;6.22;2.72;;;12.30;99.90;;;;;;5074711;28;20394;-88
2022/06/24 02:35:38;;;;;;;6.22;3.20;;;12.30;99.90;;;;;;5075550;28;20028;-88
2022/06/24 02:38:04;;;;;;;3.63;2.83;;;12.30;99.90;;;;;;5076633;28;20029;-88
2022/06/24 02:40:48;;;;;;;5.88;3.00;;;12.20;99.90;;;;;;5076478;28;20026;-88
2022/06/24 02:43:35;;;;;;;5.45;3.13;;;12.10;99.90;;;;;;5083510;28;20036;-88
2022/06/24 02:46:07;;;;;;;4.93;2.42;;;12.00;99.90;;;;;;5078196;28;20027;-87
2022/06/24 02:48:34;;;;;;;3.90;2.97;;;11.90;99.90;;;;;;5094428;28;20025;-89
2022/06/24 02:51:02;;;;;;;4.85;2.78;;;11.90;99.90;;;;;;5078233;28;20025;-89
2022/06/24 02:53:30;;;;;;;6.45;2.83;;;11.90;99.90;;;;;;5080658;28;20130;-91
2022/06/24 02:56:00;;;;;;;3.63;2.83;;;11.80;99.90;;;;;;5099964;28;20012;-89
2022/06/24 02:58:26;;;;;;;6.47;3.40;;;11.80;99.90;;;;;;5116111;28;20020;-88
2022/06/24 03:00:52;;;;;;;4.45;3.10;;;11.80;99.90;;;;;;5086112;28;20049;-88
2022/06/24 03:03:20;;;;;;;4.35;2.80;;;11.70;99.90;;;;;;5075996;28;20036;-89
2022/06/24 03:05:47;;;;;;;4.90;3.00;;;11.70;99.90;;;;;;5074358;28;20024;-88
2022/06/24 03:08:14;;;;;;;4.85;2.78;;;11.70;99.90;;;;;;5073703;28;20066;-88
2022/06/24 03:10:41;;;;;;;4.03;3.00;;;11.70;99.90;;;;;;5080182;28;20470;-89
2022/06/24 03:13:06;;;;;;;7.63;3.00;;;11.70;99.90;;;;;;5078243;28;20086;-88
2022/06/24 03:15:32;;;;;;;6.97;3.15;;;11.70;99.90;;;;;;5074059;28;20044;-89
2022/06/24 03:17:58;;;;;;;5.07;2.80;;;11.70;99.90;;;;;;5075509;28;20492;-88
2022/06/24 03:20:24;;;;;;;4.75;2.80;;;11.70;99.90;;;;;;5075561;28;20029;-89
2022/06/24 03:22:51;;;;;;;4.47;2.97;;;11.70;99.90;;;;;;5075330;28;20040;-88
2022/06/24 03:25:16;;;;;;;4.28;2.58;;;11.70;99.90;;;;;;5075661;28;20020;-87
2022/06/24 03:27:42;;;;;;;5.70;2.97;;;11.70;99.90;;;;;;5075522;28;20028;-89
2022/06/24 03:30:10;;;;;;;3.88;2.75;;;11.80;99.90;;;;;;5074530;28;20048;-88
2022/06/24 03:32:37;;;;;;;4.82;3.00;;;11.80;99.90;;;;;;5073997;28;20051;-88
2022/06/24 03:35:03;;;;;;;4.95;3.10;;;11.80;99.90;;;;;;5073828;28;20016;-88
2022/06/24 03:37:29;;;;;;;5.60;3.15;;;11.70;99.90;;;;;;5073433;28;20029;-88
2022/06/24 03:39:56;;;;;;;5.22;3.40;;;11.80;99.90;;;;;;5073386;28;20107;-87
2022/06/24 03:42:21;;;;;;;4.85;3.42;;;11.70;99.90;;;;;;5074783;28;20032;-87
2022/06/24 03:44:47;;;;;;;4.72;3.00;;;11.60;99.90;;;;;;5073328;28;20032;-88
2022/06/24 03:47:13;;;;;;;4.65;3.13;;;11.50;99.90;;;;;;5073472;28;20375;-88
2022/06/24 03:49:39;;;;;;;6.15;3.05;;;11.40;99.90;;;;;;5074738;28;20028;-88
2022/06/24 03:52:05;;;;;;;4.93;3.28;;;11.30;99.90;;;;;;5074674;28;20090;-88
2022/06/24 03:54:31;;;;;;;5.38;3.33;;;11.30;99.90;;;;;;5073463;28;20051;-89
2022/06/24 03:56:57;;;;;;;3.65;2.83;;;11.20;99.90;;;;;;5074970;28;20051;-88
2022/06/24 03:59:23;;;;;;;5.22;2.88;;;11.20;99.90;;;;;;5073840;28;20028;-89
2022/06/24 04:01:48;;;;;;;6.80;3.10;;;11.20;99.90;;;;;;5086314;28;20048;-88
2022/06/24 04:04:15;;;;;;;6.13;3.20;;;11.20;99.90;;;;;;5077608;28;20044;-88
2022/06/24 04:06:40;;;;;;;4.03;2.90;;;11.20;99.90;;;;;;5091254;28;20070;-89
2022/06/24 04:09:06;;;;;;;3.70;3.13;;;11.20;99.90;;;;;;5073569;28;20028;-88
2022/06/24 04:11:32;;;;;;;4.70;2.72;;;11.20;99.90;;;;;;5075030;28;20029;-88
2022/06/24 04:13:59;;;;;;;5.97;3.00;;;11.20;99.90;;;;;;5073851;28;20017;-88
2022/06/24 04:16:25;;;;;;;4.10;2.83;;;11.20;99.90;;;;;;5073722;28;20492;-89
2022/06/24 04:18:51;;;;;;;5.50;3.10;;;11.20;99.90;;;;;;5074417;28;20028;-90
2022/06/24 04:21:17;;;;;;;5.57;3.40;;;11.30;99.90;;;;;;5075570;28;20033;-88
2022/06/24 04:23:44;;;;;;;4.07;3.20;;;11.30;99.90;;;;;;5075396;28;20546;-88
2022/06/24 04:26:11;;;;;;;4.78;2.95;;;11.30;99.90;;;;;;5074174;28;20372;-89
2022/06/24 04:28:38;;;;;;;6.18;3.08;;;11.30;99.90;;;;;;5074544;28;20058;-88
2022/06/24 04:31:03;;;;;;;5.30;3.30;;;11.30;99.90;;;;;;5073224;28;20139;-87
2022/06/24 04:33:31;;;;;;;4.43;3.30;;;11.30;99.90;;;;;;5074125;28;20504;-89
2022/06/24 04:35:56;;;;;;;6.82;3.10;;;11.30;99.90;;;;;;5074102;28;20028;-88
2022/06/24 04:38:22;;;;;;;5.60;3.20;;;11.30;99.90;;;;;;5073582;28;20032;-89
2022/06/24 04:40:48;;;;;;;5.70;3.80;;;11.20;99.90;;;;;;5073487;28;20474;-88
2022/06/24 04:43:14;;;;;;;6.78;3.67;;;11.20;99.90;;;;;;5072060;28;20065;-89
2022/06/24 04:45:40;;;;;;;5.75;4.00;;;11.10;99.90;;;;;;5073138;28;20029;-88
2022/06/24 04:48:06;;;;;;;9.20;3.85;;;11.10;99.90;;;;;;5071641;28;20111;-90
2022/06/24 04:50:32;;;;;;;7.38;3.75;;;11.10;99.90;;;;;;5088757;28;20021;-88
2022/06/24 04:52:58;;;;;;;7.00;4.18;;;11.10;99.90;;;;;;5072125;28;20028;-89
2022/06/24 04:55:24;;;;;;;6.03;4.45;;;11.10;99.90;;;;;;5073462;28;20480;-89
2022/06/24 04:57:50;;;;;;;9.85;4.63;;;11.10;99.90;;;;;;5072910;28;20025;-89
2022/06/24 05:00:16;;;;;;;7.85;4.10;;;11.10;99.90;;;;;;5088684;28;20080;-87
2022/06/24 05:02:42;;;;;;;5.47;3.97;;;11.10;99.90;;;;;;5073083;28;20144;-88
2022/06/24 05:05:09;;;;;;;5.25;3.92;;;11.10;99.90;;;;;;5073104;28;20103;-88
2022/06/24 05:07:35;;;;;;;5.32;3.97;;;11.00;99.90;;;;;;5071996;28;20120;-87
2022/06/24 05:10:01;;;;;;;5.50;3.90;;;11.00;99.90;;;;;;5072165;28;20633;-89
2022/06/24 05:12:27;;;;;;;6.63;4.00;;;11.00;99.90;;;;;;5073451;28;20546;-88
2022/06/24 05:14:53;;;;;;;7.20;3.92;;;11.00;99.90;;;;;;5072878;28;20052;-87
2022/06/24 05:17:18;;;;;;;8.30;3.53;;;11.00;99.90;;;;;;5089196;28;20020;-88
2022/06/24 05:19:44;;;;;;;6.38;4.10;;;11.00;99.90;;;;;;5080520;28;20040;-87
2022/06/24 05:22:10;;;;;;;6.82;3.85;;;11.00;99.90;;;;;;5079676;28;20029;-87
2022/06/24 05:24:36;;;;;;;5.85;4.05;;;11.10;99.90;;;;;;5074678;28;20473;-86
2022/06/24 05:27:02;;;;;;;5.50;3.63;;;11.10;99.90;;;;;;5073917;28;20028;-87
2022/06/24 05:29:27;;;;;;;6.63;3.92;;;11.10;99.90;;;;;;5073381;28;20417;-88
2022/06/24 05:31:53;;;;;;;7.55;3.42;;;11.10;99.90;;;;;;5091047;28;20019;-87
2022/06/24 05:34:19;;;;;;;5.15;3.35;;;11.10;99.90;;;;;;5092978;28;20154;-87
2022/06/24 05:36:45;;;;;;;6.13;3.67;;;11.10;99.90;;;;;;5097707;28;20012;-87
2022/06/24 05:39:11;;;;;;;7.10;3.78;;;11.10;99.90;;;;;;5100562;28;20016;-88
2022/06/24 05:41:39;;;;;;;5.15;3.53;;;11.20;99.90;;;;;;5101089;28;20122;-87
2022/06/24 05:44:05;;;;;;;8.40;4.03;;;11.20;99.90;;;;;;5100102;28;20032;-87
2022/06/24 05:46:30;;;;;;;7.90;4.25;;;11.20;99.90;;;;;;5104182;28;20388;-87
2022/06/24 05:48:57;;;;;;;8.25;4.75;;;11.20;99.90;;;;;;5102693;28;20077;-88
2022/06/24 05:51:23;;;;;;;8.55;4.10;;;11.20;99.90;;;;;;5101795;28;20031;-89
2022/06/24 05:56:33;;;;;;;13.48;4.28;;;11.20;99.90;;;;;;5102348;28;20620;-88
2022/06/24 05:58:59;;;;;;;6.70;4.55;;;11.30;99.90;;;;;;5101607;28;20023;-88
2022/06/24 06:01:27;;;;;;;7.32;4.75;;;11.30;99.90;;;;;;5104376;28;20074;-88
2022/06/24 06:03:52;;;;;;;7.40;4.70;;;11.40;99.90;;;;;;5103944;28;20049;-87
2022/06/24 06:06:20;;;;;;;10.75;4.25;;;11.40;99.90;;;;;;5103840;28;20054;-88
2022/06/24 06:08:45;;;;;;;6.47;4.30;;;11.50;99.90;;;;;;5103370;28;20111;-88
2022/06/24 06:11:21;;;;;;;7.88;4.50;;;11.60;99.90;;;;;;5104397;28;20153;-87
2022/06/24 06:13:49;;;;;;;7.55;4.45;;;11.70;99.90;;;;;;5107274;28;20338;-86
2022/06/24 06:16:15;;;;;;;15.20;6.40;;;11.80;99.90;;;;;;5107201;28;20448;-87
2022/06/24 06:18:41;;;;;;;10.82;4.57;;;11.90;99.90;;;;;;5102410;28;20032;-88
2022/06/24 06:21:08;;;;;;;6.28;4.65;;;12.00;99.90;;;;;;5105292;28;20016;-87
2022/06/24 06:23:35;;;;;;;7.65;4.55;;;12.10;99.90;;;;;;5104270;28;20558;-85
2022/06/24 06:26:03;;;;;;;7.82;4.65;;;12.10;99.90;;;;;;5106885;28;20496;-88
2022/06/24 06:28:33;;;;;;;11.18;4.88;;;12.20;99.90;;;;;;5106991;28;20040;-89
2022/06/24 06:30:59;;;;;;;8.75;4.90;;;12.30;99.90;;;;;;5107537;28;20020;-87
2022/06/24 06:33:36;;;;;;;9.27;4.82;;;12.30;99.90;;;;;;5111337;28;20081;-90
2022/06/24 06:36:07;;;;;;;7.85;4.85;;;12.30;99.90;;;;;;5105726;28;20031;-87
2022/06/24 06:38:38;;;;;;;8.10;4.68;;;12.40;99.90;;;;;;5112497;28;20008;-87
2022/06/24 06:41:04;;;;;;;8.48;4.80;;;12.50;99.90;;;;;;5114885;28;20023;-88
2022/06/24 06:43:31;;;;;;;6.90;4.53;;;12.50;99.90;;;;;;5107504;28;20044;-86
2022/06/24 06:45:57;;;;;;;9.70;4.60;;;12.50;99.90;;;;;;5104943;28;20020;-87
2022/06/24 06:48:23;;;;;;;10.15;4.50;;;12.60;99.90;;;;;;5096558;28;20469;-86
2022/06/24 06:50:59;;;;;;;5.68;4.10;;;12.70;99.90;;;;;;5097441;28;20039;-87
2022/06/24 06:53:26;;;;;;;6.40;4.55;;;12.80;99.90;;;;;;5095179;28;20520;-88
2022/06/24 06:55:52;;;;;;;7.95;5.25;;;12.80;99.90;;;;;;5097985;28;20024;-87
2022/06/24 06:58:19;;;;;;;7.18;4.72;;;12.90;99.90;;;;;;5096800;28;20035;-88
2022/06/24 07:00:45;;;;;;;6.65;4.95;;;13.00;99.90;;;;;;5098590;28;20489;-88
2022/06/24 07:03:11;;;;;;;6.88;4.68;;;13.00;99.90;;;;;;5097063;28;20040;-88
2022/06/24 07:05:37;;;;;;;11.02;5.22;;;13.10;99.90;;;;;;5097317;28;20020;-88
2022/06/24 07:08:03;;;;;;;8.02;4.97;;;13.20;99.90;;;;;;5100580;28;20016;-88
2022/06/24 07:10:29;;;;;;;7.43;5.55;;;13.20;99.90;;;;;;5109728;28;20012;-88
2022/06/24 07:12:54;;;;;;;7.63;4.78;;;13.30;99.90;;;;;;5107961;28;20027;-89
2022/06/24 07:15:20;;;;;;;9.07;5.00;;;13.40;99.90;;;;;;5109815;28;20378;-88
2022/06/24 07:17:46;;;;;;;7.82;5.32;;;13.50;99.90;;;;;;5099061;28;20119;-89
2022/06/24 07:20:12;;;;;;;10.73;4.95;;;13.60;99.90;;;;;;5096373;28;20031;-90
2022/06/24 07:22:39;;;;;;;8.43;5.03;;;13.70;99.90;;;;;;5097837;28;20032;-90
2022/06/24 07:25:05;;;;;;;8.32;4.78;;;13.80;99.90;;;;;;5102581;28;20083;-89
2022/06/24 07:27:31;;;;;;;16.60;6.28;;;13.90;99.90;;;;;;5102147;28;20028;-89
2022/06/24 07:29:56;;;;;;;11.95;5.43;;;14.00;99.90;;;;;;5094217;28;20016;-88
2022/06/24 07:32:22;;;;;;;7.50;4.65;;;14.10;99.90;;;;;;5093165;28;20035;-90
2022/06/24 07:34:48;;;;;;;11.57;5.13;;;14.10;99.90;;;;;;5093512;28;20099;-90
2022/06/24 07:37:13;;;;;;;11.07;4.75;;;14.20;99.90;;;;;;5095163;28;20621;-90
2022/06/24 07:39:39;;;;;;;10.65;6.32;;;14.30;99.90;;;;;;5094176;28;20031;-92
2022/06/24 07:42:05;;;;;;;12.57;7.85;;;14.40;99.90;;;;;;5094043;28;20024;-90
2022/06/24 07:44:31;;;;;;;13.85;5.82;;;14.50;99.90;;;;;;5094189;28;20066;-90
2022/06/24 07:46:57;;;;;;;8.95;5.63;;;14.70;99.90;;;;;;5092883;28;20023;-89
2022/06/24 07:49:23;;;;;;;10.38;6.40;;;14.80;99.90;;;;;;5088282;28;20094;-91
2022/06/24 07:51:49;;;;;;;15.85;7.22;;;15.00;99.90;;;;;;5094695;28;20478;-92
2022/06/24 07:54:14;;;;;;;16.10;10.02;;;15.20;99.90;;;;;;5096104;28;20024;-91
2022/06/24 07:56:59;;;;;;;19.10;11.90;;;15.40;99.90;;;;;;5098213;28;20028;-91
2022/06/24 07:59:28;;;;;;;24.80;14.90;;;15.50;99.90;;;;;;5107378;28;20039;-90
2022/06/24 08:01:55;;;;;;;25.77;15.40;;;15.80;99.90;;;;;;5094869;28;20508;-90
2022/06/24 08:04:23;;;;;;;10.85;7.80;;;15.90;99.90;;;;;;5094012;28;20039;-90
2022/06/24 08:06:52;;;;;;;13.25;7.45;;;16.10;99.90;;;;;;5093735;28;20024;-91
2022/06/24 08:09:23;;;;;;;17.65;9.20;;;16.20;99.90;;;;;;5094785;28;20032;-89
2022/06/24 08:11:50;;;;;;;17.70;11.15;;;16.20;99.90;;;;;;5092740;28;20024;-91
2022/06/24 08:14:16;;;;;;;29.33;15.85;;;16.30;99.90;;;;;;5098327;28;20676;-91
2022/06/24 08:16:43;;;;;;;32.53;16.75;;;16.40;99.90;;;;;;5096575;28;20028;-88
2022/06/24 08:19:09;;;;;;;37.22;18.45;;;16.50;99.90;;;;;;5096587;28;20453;-89
2022/06/24 08:21:35;;;;;;;35.45;18.95;;;16.60;99.90;;;;;;5089607;28;20099;-89
2022/06/24 08:24:01;;;;;;;37.38;20.33;;;16.60;99.90;;;;;;5094829;28;20522;-90
2022/06/24 08:26:27;;;;;;;41.90;22.13;;;16.60;99.90;;;;;;5097755;28;20020;-90
2022/06/24 08:28:54;;;;;;;41.22;22.30;;;16.70;99.90;;;;;;5095744;28;20185;-90
2022/06/24 08:31:19;;;;;;;45.53;23.00;;;16.80;99.90;;;;;;5092275;28;20020;-92
2022/06/24 08:33:45;;;;;;;40.22;23.58;;;16.90;99.90;;;;;;5092454;28;20027;-92
2022/06/24 08:36:11;;;;;;;36.90;20.77;;;17.00;99.90;;;;;;5092781;28;20057;-91
2022/06/24 08:38:37;;;;;;;39.92;24.27;;;17.10;99.90;;;;;;5092658;28;20055;-91
2022/06/24 08:41:03;;;;;;;40.72;22.08;;;17.10;99.90;;;;;;5093022;28;20031;-92
2022/06/24 08:43:31;;;;;;;34.17;20.50;;;17.20;99.90;;;;;;5093307;28;20035;-91
2022/06/24 08:45:58;;;;;;;40.20;23.00;;;17.20;99.90;;;;;;5093326;28;20593;-90
2022/06/24 08:48:26;;;;;;;39.80;22.70;;;17.30;99.90;;;;;;5092388;28;20028;-90
2022/06/24 08:50:52;;;;;;;36.00;21.88;;;17.40;99.90;;;;;;5092492;28;20028;-89
2022/06/24 08:53:22;;;;;;;41.55;22.23;;;17.40;99.90;;;;;;5087912;28;20020;-90
2022/06/24 08:55:50;;;;;;;36.72;22.02;;;17.50;99.90;;;;;;5091201;28;20040;-88
2022/06/24 08:58:17;;;;;;;38.92;22.02;;;17.50;99.90;;;;;;5092455;28;20044;-89
2022/06/24 09:00:43;;;;;;;38.45;23.67;;;17.60;99.90;;;;;;5095983;28;20040;-90
2022/06/24 09:03:10;;;;;;;41.15;23.05;;;17.60;99.90;;;;;;5097979;28;20036;-91
2022/06/24 09:05:36;;;;;;;37.85;22.15;;;17.60;99.90;;;;;;5095310;28;20027;-91
2022/06/24 09:08:13;;;;;;;35.28;21.70;;;17.60;99.90;;;;;;5094593;28;20023;-92
2022/06/24 09:10:41;;;;;;;31.30;20.98;;;17.60;99.90;;;;;;5095754;28;20557;-90
2022/06/24 09:13:08;;;;;;;42.65;21.52;;;17.50;99.90;;;;;;5096944;28;20028;-90
2022/06/24 09:15:33;;;;;;;35.00;20.63;;;17.50;99.90;;;;;;5094847;28;20032;-91
2022/06/24 09:18:00;;;;;;;40.30;22.83;;;17.40;99.90;;;;;;5101131;28;20020;-90
2022/06/24 09:20:28;;;;;;;40.35;22.63;;;17.40;99.90;;;;;;5100342;28;20068;-89
2022/06/24 09:23:05;;;;;;;45.28;23.17;;;17.40;99.90;;;;;;5092591;28;20394;-90
2022/06/24 09:25:46;;;;;;;36.53;21.08;;;17.30;99.90;;;;;;5092606;28;20028;-92
2022/06/24 09:28:32;;;;;;;34.15;21.92;;;17.40;99.90;;;;;;5094787;28;20046;-90
2022/06/24 09:31:04;;;;;;;36.80;22.48;;;17.30;99.90;;;;;;5094441;28;20036;-90
2022/06/24 09:33:38;;;;;;;43.17;23.45;;;17.30;99.90;;;;;;5094250;28;20028;-89
2022/06/24 09:36:05;;;;;;;38.35;22.42;;;17.30;99.90;;;;;;5102875;28;20024;-92
2022/06/24 09:38:31;;;;;;;40.08;23.17;;;17.30;99.90;;;;;;5109890;28;20557;-91
2022/06/24 09:41:04;;;;;;;41.17;23.65;;;17.40;99.90;;;;;;5094960;28;20058;-92
2022/06/24 09:43:31;;;;;;;40.45;23.23;;;17.40;99.90;;;;;;5092940;28;20032;-90
2022/06/24 09:45:57;;;;;;;41.40;23.92;;;17.50;99.90;;;;;;5092457;28;20358;-90
2022/06/24 09:48:32;;;;;;;41.90;23.83;;;17.50;99.90;;;;;;5094234;28;20126;-90
2022/06/24 09:51:05;;;;;;;42.72;23.80;;;17.60;99.90;;;;;;5093919;28;20028;-91
2022/06/24 09:53:35;;;;;;;47.75;25.40;;;17.60;99.90;;;;;;5092880;28;20047;-91
2022/06/24 09:56:02;;;;;;;47.53;25.45;;;17.70;99.90;;;;;;5094233;28;20488;-91
2022/06/24 09:58:28;;;;;;;45.35;25.42;;;17.80;99.90;;;;;;5092816;28;20054;-90
2022/06/24 10:00:54;;;;;;;41.58;22.67;;;17.90;99.90;;;;;;5092516;28;20048;-89
2022/06/24 10:03:20;;;;;;;44.70;27.20;;;18.00;99.90;;;;;;5093185;28;20028;-89
2022/06/24 10:05:48;;;;;;;42.67;23.65;;;18.20;99.90;;;;;;5092705;28;20093;-90
2022/06/24 10:08:24;;;;;;;46.75;24.65;;;18.20;99.90;;;;;;5092367;28;20169;-92
2022/06/24 10:10:52;;;;;;;43.78;24.73;;;18.30;99.90;;;;;;5093965;28;20048;-91
2022/06/24 10:13:32;;;;;;;44.88;23.95;;;18.40;99.90;;;;;;5093923;28;20035;-91
2022/06/24 10:16:00;;;;;;;;;;;18.40;99.90;;;;;;5093416;28;20469;-90
2022/06/24 10:18:31;;;;;;;41.45;23.15;;;18.50;99.90;;;;;;5092959;28;19904;-90
2022/06/24 10:21:00;;;;;;;41.40;22.70;;;18.50;99.90;;;;;;5092991;28;20050;-91
2022/06/24 10:23:36;;;;;;;37.42;22.10;;;18.60;99.90;;;;;;5094790;28;20039;-90
2022/06/24 10:26:29;;;;;;;42.25;22.58;;;18.60;99.90;;;;;;5095402;28;20019;-91
2022/06/24 10:29:04;;;;;;;35.08;21.38;;;18.70;99.90;;;;;;5097856;28;20128;-91
2022/06/24 10:31:45;;;;;;;37.28;20.23;;;18.70;99.90;;;;;;5105021;28;20032;-91
2022/06/24 10:34:25;;;;;;;39.67;22.00;;;18.80;99.90;;;;;;5094777;28;20097;-90
2022/06/24 10:36:58;;;;;;;32.72;20.70;;;18.80;99.90;;;;;;5108222;28;20168;-92
2022/06/24 10:39:26;;;;;;;33.17;20.00;;;18.90;99.90;;;;;;5096519;28;20024;-90
2022/06/24 10:42:07;;;;;;;33.67;19.55;;;18.90;99.90;;;;;;5093441;28;20024;-92
2022/06/24 10:44:35;;;;;;;31.45;18.98;;;19.00;99.90;;;;;;5093190;28;20118;-92
2022/06/24 10:47:10;;;;;;;36.95;19.40;;;19.00;99.90;;;;;;5079526;28;20514;-91
2022/06/24 10:49:54;;;;;;;31.35;17.77;;;19.00;99.90;;;;;;5097492;28;20071;-90
2022/06/24 10:52:48;;;;;;;34.13;20.55;;;19.00;99.90;;;;;;5101109;28;20025;-93
2022/06/24 10:55:29;;;;;;;39.67;19.65;;;19.00;99.90;;;;;;5098125;28;20069;-92
2022/06/24 10:57:59;;;;;;;34.10;20.35;;;19.00;99.90;;;;;;5096277;28;20673;-90
2022/06/24 11:00:50;;;;;;;31.13;18.83;;;19.00;99.90;;;;;;5094834;28;20031;-89
2022/06/24 11:03:23;;;;;;;32.97;19.38;;;19.00;99.90;;;;;;5095461;28;20097;-89
2022/06/24 11:05:51;;;;;;;35.15;19.38;;;19.10;99.90;;;;;;5094890;28;20028;-91
2022/06/24 11:08:26;;;;;;;33.97;20.98;;;19.20;99.90;;;;;;5094621;28;20031;-89
2022/06/24 11:10:53;;;;;;;31.13;18.33;;;19.20;99.90;;;;;;5074628;28;20493;-92
2022/06/24 11:13:21;;;;;;;36.15;21.00;;;19.30;99.90;;;;;;5074922;28;20090;-91
2022/06/24 11:15:58;;;;;;;34.67;21.98;;;19.20;99.90;;;;;;5077061;28;20017;-90
2022/06/24 11:18:35;;;;;;;41.28;22.40;;;19.10;99.90;;;;;;5077458;28;20020;-91
2022/06/24 11:21:07;;;;;;;31.42;20.17;;;19.10;99.90;;;;;;5096658;28;20028;-90
2022/06/24 11:23:35;;;;;;;38.15;22.25;;;19.00;99.90;;;;;;5096892;28;20133;-90
2022/06/24 11:26:05;;;;;;;43.50;21.33;;;19.00;99.90;;;;;;5104015;28;20021;-88
2022/06/24 11:28:36;;;;;;;36.25;21.75;;;19.00;99.90;;;;;;5106325;28;20027;-91
2022/06/24 11:31:28;;;;;;;36.88;21.77;;;19.00;99.90;;;;;;5109375;28;20074;-90
2022/06/24 11:34:00;;;;;;;42.60;21.95;;;18.90;99.90;;;;;;5118027;28;20046;-88
2022/06/24 11:36:31;;;;;;;41.08;25.25;;;18.80;99.90;;;;;;5118283;28;20028;-90
2022/06/24 11:38:57;;;;;;;;;;;18.70;99.90;;;;;;5114684;28;20039;-95
2022/06/24 11:41:32;;;;;;;38.85;24.70;;;18.60;99.90;;;;;;5113528;28;19955;-94
2022/06/24 11:43:59;;;;;;;49.28;25.60;;;18.60;99.90;;;;;;5113005;28;20039;-94
2022/06/24 11:46:24;;;;;;;44.53;24.83;;;18.50;99.90;;;;;;5110518;28;20032;-94
2022/06/24 11:49:13;;;;;;;42.47;25.27;;;18.50;99.90;;;;;;5111138;28;20034;-93
2022/06/24 11:51:40;;;;;;;51.88;26.67;;;18.60;99.90;;;;;;5112076;28;20043;-91
2022/06/24 11:54:07;;;;;;;48.25;26.38;;;18.60;99.90;;;;;;5112078;28;20032;-92
2022/06/24 11:56:40;;;;;;;46.10;24.02;;;18.70;99.90;;;;;;5112134;28;20016;-92
2022/06/24 11:59:07;;;;;;;54.25;29.77;;;18.70;99.90;;;;;;5107489;28;20097;-93
2022/06/24 12:01:34;;;;;;;48.58;24.55;;;18.60;99.90;;;;;;5103851;28;20527;-93
2022/06/24 12:04:02;;;;;;;49.72;27.48;;;18.60;99.90;;;;;;5105568;28;20042;-90
2022/06/24 12:06:29;;;;;;;54.83;30.00;;;18.50;99.90;;;;;;5109740;28;20020;-91
2022/06/24 12:08:56;;;;;;;49.75;26.95;;;18.40;99.90;;;;;;5106988;28;20027;-93
2022/06/24 12:11:23;;;;;;;48.28;26.40;;;18.40;99.90;;;;;;5083160;28;20084;-95
2022/06/24 12:14:02;;;;;;;43.80;25.92;;;18.30;99.90;;;;;;5098977;28;20104;-95
2022/06/24 12:16:48;;;;;;;50.65;26.45;;;18.30;99.90;;;;;;5100810;28;20024;-92
2022/06/24 12:19:14;;;;;;;45.00;26.38;;;18.30;99.90;;;;;;5111928;28;20047;-92
2022/06/24 12:21:40;;;;;;;48.53;25.83;;;18.40;99.90;;;;;;5113648;28;20024;-91
2022/06/24 12:24:26;;;;;;;40.15;23.30;;;18.60;99.90;;;;;;5110259;28;20122;-90
2022/06/24 12:26:54;;;;;;;42.50;21.77;;;18.80;99.90;;;;;;5111541;28;20016;-92
2022/06/24 12:29:32;;;;;;;39.70;24.83;;;19.00;99.90;;;;;;5112181;28;20024;-91
2022/06/24 12:31:59;;;;;;;39.42;23.92;;;19.20;99.90;;;;;;5115813;28;20004;-91
2022/06/24 12:34:26;;;;;;;38.88;22.30;;;19.30;99.90;;;;;;5115842;28;20104;-86
2022/06/24 12:37:06;;;;;;;38.15;22.55;;;19.30;99.90;;;;;;5114993;28;20023;-93
2022/06/24 12:39:34;;;;;;;37.30;22.85;;;19.30;99.90;;;;;;5115329;28;20016;-93
2022/06/24 12:42:01;;;;;;;37.15;22.88;;;19.20;99.90;;;;;;5116200;28;20032;-87
2022/06/24 12:44:47;;;;;;;39.33;21.42;;;19.20;99.90;;;;;;5115975;28;20064;-89
2022/06/24 12:53:03;;;;;;;34.83;20.38;;;19.60;99.90;;;;;;5115839;28;20093;-90
2022/06/24 12:55:30;;;;;;;34.22;20.35;;;19.80;99.90;;;;;;5115995;28;20020;-88
2022/06/24 12:57:57;;;;;;;41.53;21.17;;;19.80;99.90;;;;;;5115426;28;20026;-89
2022/06/24 13:00:23;;;;;;;30.73;20.08;;;19.80;99.90;;;;;;5115312;28;20016;-88